createdAt,value
2022-11-07T00:00:29.499Z,1006.84
2022-11-07T00:01:29.500Z,1006.84
2022-11-07T00:02:29.593Z,1006.81
2022-11-07T00:03:29.501Z,1006.82
2022-11-07T00:04:29.452Z,1006.78
2022-11-07T00:05:29.436Z,1006.70
2022-11-07T00:06:29.473Z,1006.71
2022-11-07T00:07:29.402Z,1006.68
2022-11-07T00:08:29.403Z,1006.67
2022-11-07T00:09:29.403Z,1006.72
2022-11-07T00:10:29.383Z,1006.67
2022-11-07T00:11:29.372Z,1006.72
2022-11-07T00:12:29.364Z,1006.67
2022-11-07T00:13:29.358Z,1006.67
2022-11-07T00:14:29.337Z,1006.76
2022-11-07T00:15:29.344Z,1006.64
2022-11-07T00:16:29.362Z,1006.69
2022-11-07T00:17:29.337Z,1006.70
2022-11-07T00:18:29.288Z,1006.67
2022-11-07T00:19:29.278Z,1006.65
2022-11-07T00:20:29.268Z,1006.60
2022-11-07T00:21:29.292Z,1006.58
2022-11-07T00:22:29.252Z,1006.53
2022-11-07T00:23:29.290Z,1006.58
2022-11-07T00:24:29.231Z,1006.49
2022-11-07T00:25:29.212Z,1006.50
2022-11-07T00:26:29.290Z,1006.52
2022-11-07T00:27:29.257Z,1006.53
2022-11-07T00:28:29.210Z,1006.59
2022-11-07T00:29:29.247Z,1006.62
2022-11-07T00:30:29.162Z,1006.57
2022-11-07T00:31:29.298Z,1006.66
2022-11-07T00:32:29.149Z,1006.66
2022-11-07T00:33:29.143Z,1006.65
2022-11-07T00:34:29.127Z,1006.67
2022-11-07T00:35:29.113Z,1006.65
2022-11-07T00:36:29.101Z,1006.64
2022-11-07T00:37:29.089Z,1006.56
2022-11-07T00:38:29.115Z,1006.55
2022-11-07T00:39:29.093Z,1006.62
2022-11-07T00:40:29.063Z,1006.63
2022-11-07T00:41:29.051Z,1006.61
2022-11-07T00:42:29.043Z,1006.56
2022-11-07T00:43:29.033Z,1006.60
2022-11-07T00:44:29.028Z,1006.73
2022-11-07T00:45:29.004Z,1006.70
2022-11-07T00:46:29.026Z,1006.77
2022-11-07T00:47:29.005Z,1006.75
2022-11-07T00:48:28.992Z,1006.66
2022-11-07T00:49:28.969Z,1006.72
2022-11-07T00:50:28.961Z,1006.70
2022-11-07T00:51:28.952Z,1006.73
2022-11-07T00:52:28.939Z,1006.73
2022-11-07T00:53:28.931Z,1006.69
2022-11-07T00:54:28.925Z,1006.72
2022-11-07T00:55:28.908Z,1006.62
2022-11-07T00:56:28.891Z,1006.63
2022-11-07T00:57:28.892Z,1006.68
2022-11-07T00:58:28.889Z,1006.68
2022-11-07T00:59:28.857Z,1006.76
2022-11-07T01:00:28.840Z,1006.79
2022-11-07T01:01:29.006Z,1006.78
2022-11-07T01:02:28.985Z,1006.79
2022-11-07T01:03:28.847Z,1006.77
2022-11-07T01:04:28.818Z,1006.73
2022-11-07T01:05:28.810Z,1006.78
2022-11-07T01:06:28.790Z,1006.74
2022-11-07T01:07:28.777Z,1006.77
2022-11-07T01:08:28.807Z,1006.79
2022-11-07T01:09:28.797Z,1006.78
2022-11-07T01:10:28.775Z,1006.76
2022-11-07T01:11:28.736Z,1006.82
2022-11-07T01:12:28.754Z,1006.73
2022-11-07T01:13:28.719Z,1006.72
2022-11-07T01:14:28.699Z,1006.74
2022-11-07T01:15:28.727Z,1006.77
2022-11-07T01:16:28.677Z,1006.71
2022-11-07T01:17:28.684Z,1006.69
2022-11-07T01:18:28.665Z,1006.63
2022-11-07T01:19:28.661Z,1006.62
2022-11-07T01:20:28.640Z,1006.64
2022-11-07T01:21:28.641Z,1006.63
2022-11-07T01:22:28.616Z,1006.60
2022-11-07T01:23:28.616Z,1006.64
2022-11-07T01:24:28.589Z,1006.66
2022-11-07T01:25:28.587Z,1006.65
2022-11-07T01:26:28.574Z,1006.63
2022-11-07T01:27:28.558Z,1006.57
2022-11-07T01:28:28.586Z,1006.61
2022-11-07T01:29:28.536Z,1006.65
2022-11-07T01:30:28.542Z,1006.67
2022-11-07T01:31:28.523Z,1006.64
2022-11-07T01:32:28.509Z,1006.73
2022-11-07T01:33:28.499Z,1006.62
2022-11-07T01:34:28.526Z,1006.65
2022-11-07T01:35:28.494Z,1006.59
2022-11-07T01:36:28.491Z,1006.59
2022-11-07T01:37:28.445Z,1006.57
2022-11-07T01:38:28.438Z,1006.58
2022-11-07T01:39:28.439Z,1006.54
2022-11-07T01:40:28.419Z,1006.56
2022-11-07T01:41:28.413Z,1006.51
2022-11-07T01:42:28.421Z,1006.55
2022-11-07T01:43:28.393Z,1006.61
2022-11-07T01:44:28.387Z,1006.60
2022-11-07T01:45:28.374Z,1006.64
2022-11-07T01:46:28.357Z,1006.62
2022-11-07T01:47:28.351Z,1006.69
2022-11-07T01:48:28.337Z,1006.63
2022-11-07T01:49:28.334Z,1006.61
2022-11-07T01:50:28.348Z,1006.67
2022-11-07T01:51:28.316Z,1006.67
2022-11-07T01:52:28.292Z,1006.69
2022-11-07T01:53:28.284Z,1006.76
2022-11-07T01:54:28.267Z,1006.74
2022-11-07T01:55:28.268Z,1006.71
2022-11-07T01:56:28.301Z,1006.76
2022-11-07T01:57:28.245Z,1006.73
2022-11-07T01:58:28.241Z,1006.66
2022-11-07T01:59:28.220Z,1006.70
2022-11-07T02:00:28.228Z,1006.73
2022-11-07T02:01:28.338Z,1006.68
2022-11-07T02:02:28.376Z,1006.65
2022-11-07T02:03:28.198Z,1006.69
2022-11-07T02:04:28.172Z,1006.68
2022-11-07T02:05:28.153Z,1006.68
2022-11-07T02:06:28.160Z,1006.68
2022-11-07T02:07:28.255Z,1006.66
2022-11-07T02:08:28.129Z,1006.70
2022-11-07T02:09:28.110Z,1006.65
2022-11-07T02:10:28.102Z,1006.68
2022-11-07T02:11:28.144Z,1006.64
2022-11-07T02:12:28.091Z,1006.72
2022-11-07T02:13:28.082Z,1006.70
2022-11-07T02:14:28.079Z,1006.67
2022-11-07T02:15:28.054Z,1006.56
2022-11-07T02:16:28.054Z,1006.62
2022-11-07T02:17:28.048Z,1006.59
2022-11-07T02:18:28.046Z,1006.72
2022-11-07T02:19:28.010Z,1006.70
2022-11-07T02:20:27.994Z,1006.66
2022-11-07T02:21:27.995Z,1006.62
2022-11-07T02:22:27.978Z,1006.65
2022-11-07T02:23:28.092Z,1006.50
2022-11-07T02:24:27.961Z,1006.50
2022-11-07T02:25:27.952Z,1006.46
2022-11-07T02:26:27.944Z,1006.52
2022-11-07T02:27:27.922Z,1006.51
2022-11-07T02:28:27.935Z,1006.50
2022-11-07T02:29:27.910Z,1006.53
2022-11-07T02:30:27.897Z,1006.58
2022-11-07T02:31:27.901Z,1006.52
2022-11-07T02:32:27.874Z,1006.58
2022-11-07T02:33:27.871Z,1006.63
2022-11-07T02:34:27.892Z,1006.59
2022-11-07T02:35:27.842Z,1006.59
2022-11-07T02:36:27.833Z,1006.65
2022-11-07T02:37:27.811Z,1006.61
2022-11-07T02:38:27.849Z,1006.62
2022-11-07T02:39:27.823Z,1006.62
2022-11-07T02:40:27.786Z,1006.63
2022-11-07T02:41:27.784Z,1006.69
2022-11-07T02:42:27.764Z,1006.61
2022-11-07T02:43:27.749Z,1006.67
2022-11-07T02:44:27.778Z,1006.63
2022-11-07T02:45:27.742Z,1006.66
2022-11-07T02:46:27.733Z,1006.65
2022-11-07T02:47:27.719Z,1006.66
2022-11-07T02:48:27.726Z,1006.60
2022-11-07T02:49:27.696Z,1006.61
2022-11-07T02:50:27.682Z,1006.59
2022-11-07T02:51:27.671Z,1006.62
2022-11-07T02:52:27.653Z,1006.57
2022-11-07T02:53:27.658Z,1006.62
2022-11-07T02:54:27.643Z,1006.56
2022-11-07T02:55:27.671Z,1006.59
2022-11-07T02:56:27.623Z,1006.61
2022-11-07T02:57:27.603Z,1006.54
2022-11-07T02:58:27.590Z,1006.64
2022-11-07T02:59:27.584Z,1006.64
2022-11-07T03:00:27.583Z,1006.70
2022-11-07T03:01:27.665Z,1006.74
2022-11-07T03:02:27.718Z,1006.71
2022-11-07T03:03:27.548Z,1006.73
2022-11-07T03:04:27.535Z,1006.77
2022-11-07T03:05:27.539Z,1006.77
2022-11-07T03:06:27.513Z,1006.79
2022-11-07T03:07:27.517Z,1006.72
2022-11-07T03:08:27.497Z,1006.79
2022-11-07T03:09:27.481Z,1006.77
2022-11-07T03:10:27.469Z,1006.84
2022-11-07T03:11:27.478Z,1006.77
2022-11-07T03:12:27.460Z,1006.77
2022-11-07T03:13:27.432Z,1006.82
2022-11-07T03:14:27.443Z,1006.83
2022-11-07T03:15:27.411Z,1006.86
2022-11-07T03:16:27.409Z,1006.80
2022-11-07T03:17:27.405Z,1006.87
2022-11-07T03:18:27.386Z,1006.91
2022-11-07T03:19:27.383Z,1006.89
2022-11-07T03:20:27.370Z,1006.88
2022-11-07T03:21:27.374Z,1006.93
2022-11-07T03:22:27.359Z,1006.88
2022-11-07T03:23:27.342Z,1006.96
2022-11-07T03:24:27.325Z,1006.97
2022-11-07T03:25:27.321Z,1007.00
2022-11-07T03:26:27.299Z,1007.03
2022-11-07T03:27:27.340Z,1007.04
2022-11-07T03:28:27.333Z,1007.07
2022-11-07T03:29:27.278Z,1007.09
2022-11-07T03:30:27.275Z,1007.04
2022-11-07T03:31:27.268Z,1007.08
2022-11-07T03:32:27.242Z,1007.10
2022-11-07T03:33:27.235Z,1007.11
2022-11-07T03:34:27.221Z,1007.14
2022-11-07T03:35:27.201Z,1007.10
2022-11-07T03:36:27.194Z,1007.09
2022-11-07T03:37:27.198Z,1007.06
2022-11-07T03:38:27.179Z,1007.07
2022-11-07T03:39:27.173Z,1007.08
2022-11-07T03:40:27.152Z,1007.08
2022-11-07T03:41:27.145Z,1007.12
2022-11-07T03:42:27.132Z,1007.13
2022-11-07T03:43:27.141Z,1007.07
2022-11-07T03:44:27.134Z,1007.11
2022-11-07T03:45:27.101Z,1007.12
2022-11-07T03:46:27.105Z,1007.11
2022-11-07T03:47:27.087Z,1007.05
2022-11-07T03:48:27.074Z,1007.05
2022-11-07T03:49:27.063Z,1007.08
2022-11-07T03:50:27.056Z,1007.12
2022-11-07T03:51:27.035Z,1007.04
2022-11-07T03:52:35.578Z,1007.09
2022-11-07T03:53:34.574Z,1007.07
2022-11-07T03:54:34.547Z,1007.07
2022-11-07T03:55:35.834Z,1007.08
2022-11-07T03:56:35.526Z,1007.11
2022-11-07T03:57:26.975Z,1007.09
2022-11-07T03:58:26.983Z,1007.06
2022-11-07T03:59:26.985Z,1007.10
2022-11-07T04:00:26.936Z,1007.05
2022-11-07T04:01:27.079Z,1007.03
2022-11-07T04:02:27.054Z,1007.08
2022-11-07T04:03:26.909Z,1007.14
2022-11-07T04:04:26.898Z,1007.13
2022-11-07T04:05:26.908Z,1007.16
2022-11-07T04:06:26.882Z,1007.17
2022-11-07T04:07:26.908Z,1007.17
2022-11-07T04:08:26.878Z,1007.10
2022-11-07T04:09:26.867Z,1007.06
2022-11-07T04:10:26.837Z,1007.20
2022-11-07T04:11:26.828Z,1007.17
2022-11-07T04:12:26.826Z,1007.14
2022-11-07T04:13:26.824Z,1007.19
2022-11-07T04:14:26.797Z,1007.21
2022-11-07T04:15:26.810Z,1007.19
2022-11-07T04:16:26.785Z,1007.19
2022-11-07T04:17:26.848Z,1007.22
2022-11-07T04:18:26.752Z,1007.17
2022-11-07T04:19:26.738Z,1007.16
2022-11-07T04:20:26.737Z,1007.22
2022-11-07T04:21:26.716Z,1007.29
2022-11-07T04:22:26.714Z,1007.23
2022-11-07T04:23:26.727Z,1007.26
2022-11-07T04:24:26.695Z,1007.26
2022-11-07T04:25:26.672Z,1007.25
2022-11-07T04:26:26.680Z,1007.23
2022-11-07T04:27:26.661Z,1007.30
2022-11-07T04:28:26.653Z,1007.20
2022-11-07T04:29:26.650Z,1007.21
2022-11-07T04:30:26.632Z,1007.34
2022-11-07T04:31:26.628Z,1007.36
2022-11-07T04:32:26.629Z,1007.31
2022-11-07T04:33:26.617Z,1007.36
2022-11-07T04:34:26.592Z,1007.38
2022-11-07T04:35:26.580Z,1007.49
2022-11-07T04:36:26.576Z,1007.39
2022-11-07T04:37:26.546Z,1007.33
2022-11-07T04:38:26.557Z,1007.48
2022-11-07T04:39:26.550Z,1007.36
2022-11-07T04:40:26.529Z,1007.43
2022-11-07T04:41:26.517Z,1007.41
2022-11-07T04:42:26.507Z,1007.45
2022-11-07T04:43:26.498Z,1007.46
2022-11-07T04:44:26.507Z,1007.44
2022-11-07T04:45:26.480Z,1007.47
2022-11-07T04:46:26.462Z,1007.53
2022-11-07T04:47:26.472Z,1007.54
2022-11-07T04:48:26.464Z,1007.55
2022-11-07T04:49:26.437Z,1007.53
2022-11-07T04:50:26.421Z,1007.55
2022-11-07T04:51:26.415Z,1007.53
2022-11-07T04:52:26.395Z,1007.55
2022-11-07T04:53:26.394Z,1007.53
2022-11-07T04:54:26.395Z,1007.56
2022-11-07T04:55:26.392Z,1007.67
2022-11-07T04:56:29.415Z,1007.65
2022-11-07T04:57:27.339Z,1007.58
2022-11-07T04:58:26.327Z,1007.59
2022-11-07T04:59:26.339Z,1007.56
2022-11-07T05:00:26.320Z,1007.62
2022-11-07T05:01:26.380Z,1007.58
2022-11-07T05:02:26.494Z,1007.59
2022-11-07T05:03:26.289Z,1007.54
2022-11-07T05:04:26.276Z,1007.59
2022-11-07T05:05:26.254Z,1007.58
2022-11-07T05:06:26.249Z,1007.53
2022-11-07T05:07:26.252Z,1007.53
2022-11-07T05:08:26.222Z,1007.55
2022-11-07T05:09:26.208Z,1007.55
2022-11-07T05:10:26.204Z,1007.49
2022-11-07T05:11:26.225Z,1007.49
2022-11-07T05:12:26.195Z,1007.49
2022-11-07T05:13:26.167Z,1007.55
2022-11-07T05:14:26.182Z,1007.49
2022-11-07T05:15:26.162Z,1007.43
2022-11-07T05:16:26.137Z,1007.45
2022-11-07T05:17:28.052Z,1007.49
2022-11-07T05:18:26.148Z,1007.49
2022-11-07T05:19:26.129Z,1007.49
2022-11-07T05:20:26.110Z,1007.50
2022-11-07T05:21:26.098Z,1007.55
2022-11-07T05:22:26.078Z,1007.55
2022-11-07T05:23:26.079Z,1007.51
2022-11-07T05:24:26.058Z,1007.60
2022-11-07T05:25:26.063Z,1007.58
2022-11-07T05:26:26.039Z,1007.60
2022-11-07T05:27:26.030Z,1007.63
2022-11-07T05:28:35.351Z,1007.65
2022-11-07T05:29:27.003Z,1007.60
2022-11-07T05:30:26.004Z,1007.61
2022-11-07T05:31:26.000Z,1007.63
2022-11-07T05:32:25.984Z,1007.62
2022-11-07T05:33:25.984Z,1007.61
2022-11-07T05:34:26.021Z,1007.51
2022-11-07T05:35:25.958Z,1007.64
2022-11-07T05:36:25.937Z,1007.59
2022-11-07T05:37:25.933Z,1007.68
2022-11-07T05:38:25.982Z,1007.68
2022-11-07T05:39:25.916Z,1007.63
2022-11-07T05:40:25.902Z,1007.68
2022-11-07T05:41:25.922Z,1007.70
2022-11-07T05:42:25.877Z,1007.67
2022-11-07T05:43:25.852Z,1007.69
2022-11-07T05:44:25.883Z,1007.71
2022-11-07T05:45:25.899Z,1007.68
2022-11-07T05:46:25.820Z,1007.68
2022-11-07T05:47:25.861Z,1007.66
2022-11-07T05:48:25.818Z,1007.71
2022-11-07T05:49:25.833Z,1007.77
2022-11-07T05:50:25.813Z,1007.76
2022-11-07T05:51:25.784Z,1007.73
2022-11-07T05:52:25.776Z,1007.75
2022-11-07T05:53:25.829Z,1007.74
2022-11-07T05:54:25.771Z,1007.75
2022-11-07T05:55:25.740Z,1007.80
2022-11-07T05:56:25.730Z,1007.80
2022-11-07T05:57:25.718Z,1007.77
2022-11-07T05:58:25.699Z,1007.81
2022-11-07T05:59:25.691Z,1007.79
2022-11-07T06:00:25.680Z,1007.76
2022-11-07T06:01:25.747Z,1007.73
2022-11-07T06:02:25.861Z,1007.77
2022-11-07T06:03:25.695Z,1007.77
2022-11-07T06:04:25.667Z,1007.84
2022-11-07T06:05:25.626Z,1007.86
2022-11-07T06:06:25.624Z,1007.87
2022-11-07T06:07:25.628Z,1007.89
2022-11-07T06:08:25.586Z,1007.92
2022-11-07T06:09:25.589Z,1007.91
2022-11-07T06:10:25.605Z,1007.90
2022-11-07T06:11:25.596Z,1007.90
2022-11-07T06:12:25.552Z,1007.91
2022-11-07T06:13:25.536Z,1007.91
2022-11-07T06:14:25.533Z,1007.93
2022-11-07T06:15:25.533Z,1007.93
2022-11-07T06:16:25.503Z,1007.93
2022-11-07T06:17:25.538Z,1007.99
2022-11-07T06:18:25.487Z,1007.97
2022-11-07T06:19:25.486Z,1008.01
2022-11-07T06:20:25.482Z,1007.99
2022-11-07T06:21:25.477Z,1008.02
2022-11-07T06:22:25.450Z,1008.05
2022-11-07T06:23:25.586Z,1008.00
2022-11-07T06:24:25.437Z,1008.02
2022-11-07T06:25:25.406Z,1008.06
2022-11-07T06:26:25.406Z,1008.08
2022-11-07T06:27:25.454Z,1008.05
2022-11-07T06:28:25.408Z,1008.07
2022-11-07T06:29:25.371Z,1008.09
2022-11-07T06:30:25.369Z,1008.12
2022-11-07T06:31:25.356Z,1008.06
2022-11-07T06:32:25.365Z,1008.07
2022-11-07T06:33:25.338Z,1008.07
2022-11-07T06:34:25.325Z,1008.14
2022-11-07T06:35:25.341Z,1008.06
2022-11-07T06:36:25.313Z,1008.09
2022-11-07T06:37:25.300Z,1008.07
2022-11-07T06:38:25.297Z,1008.09
2022-11-07T06:39:25.316Z,1008.01
2022-11-07T06:40:25.258Z,1008.07
2022-11-07T06:41:25.247Z,1008.00
2022-11-07T06:42:25.235Z,1008.01
2022-11-07T06:43:26.780Z,1008.15
2022-11-07T06:44:25.222Z,1008.01
2022-11-07T06:45:25.205Z,1008.09
2022-11-07T06:46:25.191Z,1008.06
2022-11-07T06:47:25.180Z,1008.01
2022-11-07T06:48:25.196Z,1008.06
2022-11-07T06:49:25.172Z,1008.07
2022-11-07T06:50:25.151Z,1008.04
2022-11-07T06:51:25.150Z,1008.06
2022-11-07T06:52:25.143Z,1008.11
2022-11-07T06:53:25.118Z,1008.05
2022-11-07T06:54:25.157Z,1008.07
2022-11-07T06:55:25.204Z,1008.11
2022-11-07T06:56:25.091Z,1008.04
2022-11-07T06:57:25.099Z,1008.07
2022-11-07T06:58:25.085Z,1008.17
2022-11-07T06:59:25.063Z,1008.12
2022-11-07T07:00:25.065Z,1008.14
2022-11-07T07:01:25.162Z,1008.13
2022-11-07T07:02:56.425Z,1008.18
2022-11-07T07:03:26.039Z,1008.18
2022-11-07T07:04:25.001Z,1008.09
2022-11-07T07:05:25.004Z,1008.19
2022-11-07T07:06:24.993Z,1008.20
2022-11-07T07:07:24.991Z,1008.19
2022-11-07T07:08:24.959Z,1008.23
2022-11-07T07:09:24.960Z,1008.17
2022-11-07T07:10:24.995Z,1008.24
2022-11-07T07:11:24.968Z,1008.28
2022-11-07T07:12:24.952Z,1008.32
2022-11-07T07:13:24.924Z,1008.29
2022-11-07T07:14:24.895Z,1008.29
2022-11-07T07:15:24.916Z,1008.36
2022-11-07T07:16:24.888Z,1008.33
2022-11-07T07:17:24.878Z,1008.35
2022-11-07T07:18:24.860Z,1008.27
2022-11-07T07:19:24.847Z,1008.30
2022-11-07T07:20:24.889Z,1008.34
2022-11-07T07:21:24.832Z,1008.31
2022-11-07T07:22:24.833Z,1008.32
2022-11-07T07:23:24.896Z,1008.38
2022-11-07T07:24:24.824Z,1008.37
2022-11-07T07:25:24.785Z,1008.40
2022-11-07T07:26:24.776Z,1008.42
2022-11-07T07:27:24.894Z,1008.35
2022-11-07T07:28:24.764Z,1008.40
2022-11-07T07:29:24.763Z,1008.40
2022-11-07T07:30:24.737Z,1008.37
2022-11-07T07:31:24.725Z,1008.45
2022-11-07T07:32:24.741Z,1008.38
2022-11-07T07:33:24.722Z,1008.33
2022-11-07T07:34:24.704Z,1008.40
2022-11-07T07:35:24.697Z,1008.40
2022-11-07T07:36:24.681Z,1008.37
2022-11-07T07:37:24.687Z,1008.32
2022-11-07T07:38:24.652Z,1008.25
2022-11-07T07:39:24.637Z,1008.29
2022-11-07T07:40:24.675Z,1008.32
2022-11-07T07:41:24.617Z,1008.34
2022-11-07T07:42:24.606Z,1008.28
2022-11-07T07:43:24.729Z,1008.27
2022-11-07T07:44:24.587Z,1008.26
2022-11-07T07:45:24.595Z,1008.25
2022-11-07T07:46:24.565Z,1008.21
2022-11-07T07:47:24.561Z,1008.23
2022-11-07T07:48:24.561Z,1008.29
2022-11-07T07:49:24.542Z,1008.27
2022-11-07T07:50:24.520Z,1008.23
2022-11-07T07:51:24.533Z,1008.24
2022-11-07T07:52:24.509Z,1008.28
2022-11-07T07:53:24.507Z,1008.31
2022-11-07T07:54:24.496Z,1008.29
2022-11-07T07:55:24.486Z,1008.34
2022-11-07T07:56:24.464Z,1008.35
2022-11-07T07:57:24.497Z,1008.35
2022-11-07T07:58:24.456Z,1008.38
2022-11-07T07:59:24.553Z,1008.37
2022-11-07T08:00:24.450Z,1008.37
2022-11-07T08:01:24.741Z,1008.39
2022-11-07T08:02:24.492Z,1008.43
2022-11-07T08:03:24.395Z,1008.38
2022-11-07T08:04:24.403Z,1008.35
2022-11-07T08:05:24.374Z,1008.39
2022-11-07T08:06:24.365Z,1008.40
2022-11-07T08:07:24.374Z,1008.42
2022-11-07T08:08:24.330Z,1008.42
2022-11-07T08:09:24.333Z,1008.38
2022-11-07T08:11:25.318Z,1008.35
2022-11-07T08:12:24.315Z,1008.31
2022-11-07T08:13:24.279Z,1008.43
2022-11-07T08:14:24.318Z,1008.40
2022-11-07T08:15:24.383Z,1008.41
2022-11-07T08:16:24.252Z,1008.39
2022-11-07T08:17:24.242Z,1008.36
2022-11-07T08:18:24.246Z,1008.39
2022-11-07T08:19:24.218Z,1008.45
2022-11-07T08:20:24.251Z,1008.42
2022-11-07T08:21:24.194Z,1008.47
2022-11-07T08:22:24.306Z,1008.50
2022-11-07T08:23:24.445Z,1008.47
2022-11-07T08:24:24.173Z,1008.53
2022-11-07T08:25:32.896Z,1008.52
2022-11-07T08:26:24.172Z,1008.56
2022-11-07T08:27:24.203Z,1008.53
2022-11-07T08:28:24.270Z,1008.51
2022-11-07T08:29:24.122Z,1008.52
2022-11-07T08:30:24.131Z,1008.60
2022-11-07T08:31:24.197Z,1008.54
2022-11-07T08:32:24.159Z,1008.52
2022-11-07T08:33:24.119Z,1008.54
2022-11-07T08:34:24.072Z,1008.53
2022-11-07T08:35:24.099Z,1008.51
2022-11-07T08:36:24.072Z,1008.54
2022-11-07T08:37:24.057Z,1008.55
2022-11-07T08:38:31.700Z,1008.55
2022-11-07T08:39:24.098Z,1008.55
2022-11-07T08:40:24.054Z,1008.61
2022-11-07T08:41:31.567Z,1008.55
2022-11-07T08:42:24.073Z,1008.61
2022-11-07T08:43:24.009Z,1008.58
2022-11-07T08:44:23.985Z,1008.64
2022-11-07T08:45:31.540Z,1008.59
2022-11-07T08:46:23.963Z,1008.59
2022-11-07T08:47:23.983Z,1008.59
2022-11-07T08:48:24.081Z,1008.59
2022-11-07T08:49:23.961Z,1008.55
2022-11-07T08:50:23.899Z,1008.56
2022-11-07T08:51:23.893Z,1008.50
2022-11-07T08:52:23.880Z,1008.48
2022-11-07T08:53:33.512Z,1008.54
2022-11-07T08:54:23.858Z,1008.64
2022-11-07T08:55:23.933Z,1008.64
2022-11-07T08:56:23.858Z,1008.56
2022-11-07T08:57:23.850Z,1008.57
2022-11-07T08:58:29.721Z,1008.60
2022-11-07T08:59:24.821Z,1008.61
2022-11-07T09:00:23.872Z,1008.62
2022-11-07T09:01:23.939Z,1008.60
2022-11-07T09:03:17.838Z,1008.66
2022-11-07T09:03:43.953Z,1008.60
2022-11-07T09:04:24.794Z,1008.61
2022-11-07T09:05:23.729Z,1008.64
2022-11-07T09:06:23.738Z,1008.61
2022-11-07T09:07:23.770Z,1008.57
2022-11-07T09:08:23.719Z,1008.60
2022-11-07T09:09:23.707Z,1008.57
2022-11-07T09:10:23.811Z,1008.64
2022-11-07T09:11:23.689Z,1008.64
2022-11-07T09:12:31.249Z,1008.66
2022-11-07T09:13:23.717Z,1008.66
2022-11-07T09:14:31.234Z,1008.67
2022-11-07T09:15:23.706Z,1008.72
2022-11-07T09:16:23.682Z,1008.76
2022-11-07T09:17:23.621Z,1008.72
2022-11-07T09:18:23.606Z,1008.74
2022-11-07T09:19:23.605Z,1008.78
2022-11-07T09:20:23.627Z,1008.74
2022-11-07T09:21:23.593Z,1008.77
2022-11-07T09:22:23.560Z,1008.76
2022-11-07T09:23:23.553Z,1008.77
2022-11-07T09:24:23.555Z,1008.72
2022-11-07T09:25:23.579Z,1008.73
2022-11-07T09:26:23.526Z,1008.73
2022-11-07T09:27:23.515Z,1008.71
2022-11-07T09:28:23.541Z,1008.81
2022-11-07T09:29:23.551Z,1008.77
2022-11-07T09:30:23.477Z,1008.71
2022-11-07T09:31:23.504Z,1008.74
2022-11-07T09:32:43.810Z,1008.86
2022-11-07T09:33:24.444Z,1008.77
2022-11-07T09:34:23.430Z,1008.76
2022-11-07T09:35:23.461Z,1008.82
2022-11-07T09:36:23.406Z,1008.83
2022-11-07T09:37:23.388Z,1008.81
2022-11-07T09:38:23.421Z,1008.84
2022-11-07T09:39:23.405Z,1008.82
2022-11-07T09:40:23.391Z,1008.85
2022-11-07T09:41:23.349Z,1008.79
2022-11-07T09:42:23.345Z,1008.83
2022-11-07T09:43:23.338Z,1008.78
2022-11-07T09:44:26.678Z,1008.78
2022-11-07T09:45:24.304Z,1008.82
2022-11-07T09:46:23.299Z,1008.78
2022-11-07T09:47:23.329Z,1008.80
2022-11-07T09:48:23.284Z,1008.81
2022-11-07T09:49:23.306Z,1008.83
2022-11-07T09:50:23.273Z,1008.77
2022-11-07T09:51:23.354Z,1008.77
2022-11-07T09:52:23.225Z,1008.79
2022-11-07T09:53:23.228Z,1008.77
2022-11-07T09:54:23.259Z,1008.83
2022-11-07T09:55:23.204Z,1008.80
2022-11-07T09:56:23.193Z,1008.78
2022-11-07T09:57:23.184Z,1008.79
2022-11-07T09:58:23.155Z,1008.80
2022-11-07T09:59:23.182Z,1008.75
2022-11-07T10:00:23.205Z,1008.81
2022-11-07T10:01:23.259Z,1008.80
2022-11-07T10:02:23.164Z,1008.81
2022-11-07T10:03:23.150Z,1008.82
2022-11-07T10:04:25.351Z,1008.82
2022-11-07T10:05:23.287Z,1008.81
2022-11-07T10:06:24.347Z,1008.77
2022-11-07T10:07:23.092Z,1008.81
2022-11-07T10:08:23.068Z,1008.83
2022-11-07T10:09:23.042Z,1008.86
2022-11-07T10:10:23.035Z,1008.81
2022-11-07T10:11:23.089Z,1008.85
2022-11-07T10:12:23.039Z,1008.85
2022-11-07T10:13:23.006Z,1008.82
2022-11-07T10:14:22.992Z,1008.83
2022-11-07T10:15:22.987Z,1008.87
2022-11-07T10:16:22.972Z,1008.86
2022-11-07T10:17:22.964Z,1008.91
2022-11-07T10:18:22.996Z,1008.87
2022-11-07T10:19:22.949Z,1008.88
2022-11-07T10:20:25.023Z,1008.88
2022-11-07T10:21:39.200Z,1008.93
2022-11-07T10:22:23.949Z,1008.88
2022-11-07T10:23:22.916Z,1008.92
2022-11-07T10:24:22.880Z,1008.87
2022-11-07T10:25:22.866Z,1008.93
2022-11-07T10:26:22.857Z,1008.95
2022-11-07T10:27:22.858Z,1008.99
2022-11-07T10:28:22.911Z,1008.95
2022-11-07T10:29:22.819Z,1008.88
2022-11-07T10:30:22.819Z,1008.88
2022-11-07T10:31:22.819Z,1008.91
2022-11-07T10:32:22.795Z,1008.89
2022-11-07T10:33:22.815Z,1008.86
2022-11-07T10:34:22.784Z,1008.83
2022-11-07T10:35:22.766Z,1008.81
2022-11-07T10:36:22.758Z,1008.80
2022-11-07T10:37:22.745Z,1008.83
2022-11-07T10:38:22.745Z,1008.75
2022-11-07T10:39:22.748Z,1008.84
2022-11-07T10:40:22.708Z,1008.83
2022-11-07T10:41:22.691Z,1008.80
2022-11-07T10:42:22.694Z,1008.90
2022-11-07T10:43:22.754Z,1008.88
2022-11-07T10:44:22.664Z,1008.89
2022-11-07T10:45:22.670Z,1008.84
2022-11-07T10:46:22.670Z,1008.90
2022-11-07T10:47:22.655Z,1008.90
2022-11-07T10:48:22.619Z,1008.91
2022-11-07T10:49:22.653Z,1008.87
2022-11-07T10:50:22.599Z,1008.91
2022-11-07T10:51:22.610Z,1008.86
2022-11-07T10:52:22.580Z,1008.95
2022-11-07T10:53:22.596Z,1008.86
2022-11-07T10:54:22.557Z,1008.87
2022-11-07T10:55:22.569Z,1008.88
2022-11-07T10:56:22.548Z,1008.91
2022-11-07T10:57:22.516Z,1008.91
2022-11-07T10:58:22.524Z,1008.83
2022-11-07T10:59:22.517Z,1008.85
2022-11-07T11:00:22.661Z,1008.81
2022-11-07T11:01:22.783Z,1008.76
2022-11-07T11:02:22.634Z,1008.87
2022-11-07T11:03:22.874Z,1008.84
2022-11-07T11:04:22.448Z,1008.79
2022-11-07T11:05:22.455Z,1008.75
2022-11-07T11:06:22.481Z,1008.76
2022-11-07T11:07:28.077Z,1008.80
2022-11-07T11:08:23.406Z,1008.78
2022-11-07T11:09:22.398Z,1008.76
2022-11-07T11:10:22.461Z,1008.75
2022-11-07T11:11:22.398Z,1008.80
2022-11-07T11:12:22.383Z,1008.73
2022-11-07T11:13:22.372Z,1008.63
2022-11-07T11:14:22.352Z,1008.77
2022-11-07T11:15:22.349Z,1008.74
2022-11-07T11:16:22.338Z,1008.71
2022-11-07T11:17:22.410Z,1008.74
2022-11-07T11:18:22.311Z,1008.75
2022-11-07T11:19:22.306Z,1008.73
2022-11-07T11:20:22.281Z,1008.71
2022-11-07T11:21:22.279Z,1008.70
2022-11-07T11:22:22.316Z,1008.77
2022-11-07T11:23:22.306Z,1008.76
2022-11-07T11:24:22.242Z,1008.76
2022-11-07T11:25:22.230Z,1008.82
2022-11-07T11:26:22.223Z,1008.69
2022-11-07T11:27:22.219Z,1008.83
2022-11-07T11:28:22.218Z,1008.80
2022-11-07T11:29:22.228Z,1008.69
2022-11-07T11:30:22.181Z,1008.76
2022-11-07T11:31:22.183Z,1008.79
2022-11-07T11:32:22.159Z,1008.76
2022-11-07T11:33:22.141Z,1008.78
2022-11-07T11:34:22.156Z,1008.73
2022-11-07T11:35:22.144Z,1008.72
2022-11-07T11:36:22.124Z,1008.77
2022-11-07T11:37:22.104Z,1008.75
2022-11-07T11:38:22.095Z,1008.74
2022-11-07T11:39:22.094Z,1008.71
2022-11-07T11:40:22.074Z,1008.76
2022-11-07T11:41:22.059Z,1008.70
2022-11-07T11:42:22.083Z,1008.69
2022-11-07T11:43:22.075Z,1008.74
2022-11-07T11:44:22.067Z,1008.70
2022-11-07T11:45:22.018Z,1008.69
2022-11-07T11:46:22.012Z,1008.61
2022-11-07T11:47:22.017Z,1008.67
2022-11-07T11:48:21.987Z,1008.65
2022-11-07T11:49:21.991Z,1008.68
2022-11-07T11:50:21.963Z,1008.69
2022-11-07T11:51:21.978Z,1008.66
2022-11-07T11:52:21.938Z,1008.73
2022-11-07T11:53:21.937Z,1008.76
2022-11-07T11:54:21.924Z,1008.68
2022-11-07T11:55:21.942Z,1008.70
2022-11-07T11:56:21.911Z,1008.73
2022-11-07T11:57:21.894Z,1008.67
2022-11-07T11:58:21.915Z,1008.65
2022-11-07T11:59:21.913Z,1008.65
2022-11-07T12:00:21.872Z,1008.72
2022-11-07T12:01:22.146Z,1008.62
2022-11-07T12:02:22.031Z,1008.66
2022-11-07T12:03:21.848Z,1008.64
2022-11-07T12:04:21.820Z,1008.67
2022-11-07T12:05:21.810Z,1008.67
2022-11-07T12:06:21.794Z,1008.60